createdAt,value
2022-10-12T05:32:18.261Z,47.97
2022-10-12T05:35:20.016Z,56.38
2022-10-12T05:38:21.862Z,59.55
2022-10-12T05:41:23.610Z,51.17
2022-10-12T05:44:25.421Z,71.43
2022-10-12T05:47:27.128Z,52.72
2022-10-12T05:50:29.147Z,50.58
2022-10-12T05:53:30.928Z,49.10
2022-10-12T05:56:32.646Z,51.05
2022-10-12T05:59:34.503Z,43.20
2022-10-12T06:02:36.521Z,42.72
2022-10-12T06:05:38.832Z,46.55
2022-10-12T06:08:40.783Z,44.30
2022-10-12T06:11:43.865Z,43.15
2022-10-12T06:49:43.881Z,37.22
2022-10-12T06:52:47.558Z,36.65
2022-10-12T06:55:49.444Z,30.20
2022-10-12T06:58:55.846Z,38.55
2022-10-12T07:01:57.666Z,35.78
2022-10-12T07:05:01.351Z,34.72
2022-10-12T07:08:04.368Z,34.15
2022-10-12T07:11:08.423Z,40.30
2022-10-12T07:14:10.759Z,34.28
2022-10-12T07:17:14.437Z,36.45
2022-10-12T07:20:16.922Z,26.70
2022-10-12T07:23:19.102Z,24.73
2022-10-12T07:26:20.980Z,22.25
2022-10-12T07:29:25.948Z,21.15
2022-10-12T07:32:27.719Z,22.83
2022-10-12T07:35:29.824Z,21.48
2022-10-12T07:38:32.068Z,30.23
2022-10-12T07:41:33.902Z,32.72
2022-10-12T07:44:36.050Z,31.88
2022-10-12T07:47:38.156Z,39.38
2022-10-12T07:50:46.406Z,37.90
2022-10-12T07:53:53.568Z,23.50
2022-10-12T07:56:56.083Z,19.58
2022-10-12T07:59:58.102Z,19.42
2022-10-12T08:03:00.395Z,16.65
2022-10-12T08:06:11.712Z,17.52
2022-10-12T08:09:13.882Z,16.60
2022-10-12T08:12:17.067Z,17.08
2022-10-12T08:15:20.828Z,17.27
2022-10-12T08:18:23.317Z,14.65
2022-10-12T08:21:25.536Z,15.52
2022-10-12T08:24:29.267Z,17.75
2022-10-12T08:27:31.756Z,17.08
2022-10-12T08:30:34.765Z,18.05
2022-10-12T08:33:39.735Z,19.67
2022-10-12T08:36:41.942Z,16.85
2022-10-12T08:39:44.113Z,17.67
2022-10-12T08:42:56.983Z,17.48
2022-10-12T08:46:02.658Z,17.13
2022-10-12T08:49:25.126Z,18.73
2022-10-12T08:52:37.898Z,19.17
2022-10-12T08:55:45.297Z,18.67
2022-10-12T08:58:49.679Z,17.98
2022-10-12T09:02:05.397Z,17.17
2022-10-12T09:05:17.964Z,18.55
2022-10-12T09:08:39.774Z,17.67
2022-10-12T09:12:10.896Z,16.83
2022-10-12T09:15:19.354Z,16.50
2022-10-12T09:18:31.771Z,16.45
2022-10-12T09:21:35.221Z,17.33
2022-10-12T09:24:39.391Z,17.23
2022-10-12T09:27:45.206Z,18.95
2022-10-12T09:31:06.042Z,15.68
2022-10-12T09:34:18.898Z,15.68
2022-10-12T09:37:23.918Z,12.88
2022-10-12T09:40:32.021Z,13.00
2022-10-12T09:43:34.147Z,12.63
2022-10-12T09:46:48.594Z,12.45
2022-10-12T09:49:58.986Z,12.00
2022-10-12T09:53:03.856Z,12.73
2022-10-12T09:56:22.903Z,11.23
2022-10-12T09:59:35.702Z,11.32
2022-10-12T10:02:51.305Z,11.38
2022-10-12T10:06:04.925Z,11.25
2022-10-12T10:09:29.265Z,11.40
2022-10-12T10:12:32.937Z,11.20
2022-10-12T10:15:41.449Z,12.05
2022-10-12T10:18:49.540Z,11.57
2022-10-12T10:21:53.583Z,11.35
2022-10-12T10:25:00.556Z,11.73
2022-10-12T10:28:21.875Z,11.02
2022-10-12T10:31:28.702Z,9.95
2022-10-12T10:34:32.402Z,10.15
2022-10-12T10:37:48.494Z,9.80
2022-10-12T10:40:55.880Z,8.93
2022-10-12T10:43:58.120Z,8.43
2022-10-12T10:47:08.451Z,9.45
2022-10-12T10:50:27.811Z,9.85
2022-10-12T10:53:44.944Z,9.55
2022-10-12T10:56:47.270Z,9.13
2022-10-12T10:59:55.780Z,10.88
2022-10-12T11:03:05.027Z,10.80
2022-10-12T11:06:19.603Z,12.68
2022-10-12T11:09:31.699Z,9.73
2022-10-12T11:12:38.239Z,9.20
2022-10-12T11:16:03.537Z,8.93
2022-10-12T11:19:26.389Z,8.70
2022-10-12T11:22:40.964Z,10.27
2022-10-12T11:25:58.867Z,9.57
2022-10-12T11:29:01.100Z,7.80
2022-10-12T11:32:16.286Z,8.10
2022-10-12T11:35:28.471Z,7.93
2022-10-12T11:38:38.261Z,7.70
2022-10-12T11:42:19.973Z,8.48
2022-10-12T11:45:36.506Z,8.35
2022-10-12T11:48:53.255Z,8.38
2022-10-12T11:51:59.717Z,9.30
2022-10-12T11:55:26.164Z,8.65
2022-10-12T11:58:56.017Z,8.82
2022-10-12T12:02:03.787Z,8.40
2022-10-12T12:05:16.097Z,7.65
2022-10-12T12:08:23.395Z,8.55
2022-10-12T12:11:28.935Z,8.52
2022-10-12T12:14:31.621Z,9.10
2022-10-12T12:17:35.861Z,9.20
2022-10-12T12:20:45.768Z,9.40
2022-10-12T12:23:56.179Z,9.07
2022-10-12T12:26:58.404Z,9.07
2022-10-12T12:30:02.807Z,8.20
2022-10-12T12:33:33.463Z,9.05
2022-10-12T12:36:39.282Z,8.85
2022-10-12T12:39:43.908Z,8.95
2022-10-12T12:42:46.107Z,7.97
2022-10-12T12:46:08.178Z,8.80
2022-10-12T12:49:28.698Z,8.38
2022-10-12T12:52:34.796Z,7.22
2022-10-12T12:55:57.614Z,8.10
2022-10-12T12:59:12.786Z,8.90
2022-10-12T13:02:38.718Z,7.70
2022-10-12T13:06:20.255Z,9.27
2022-10-12T13:09:54.643Z,8.77
2022-10-12T13:13:22.191Z,8.93
2022-10-12T13:20:29.016Z,8.82
2022-10-12T13:26:35.192Z,8.48
2022-10-12T13:29:48.388Z,7.97
2022-10-12T13:33:06.305Z,7.80
2022-10-12T13:36:18.066Z,8.10
2022-10-12T13:39:21.837Z,7.82
2022-10-12T13:42:29.013Z,7.45
2022-10-12T13:45:30.858Z,6.78
2022-10-12T13:48:59.461Z,7.90
2022-10-12T13:52:00.407Z,7.50
2022-10-12T13:55:15.547Z,6.95
2022-10-12T13:58:24.279Z,6.38
2022-10-12T14:01:26.444Z,7.22
2022-10-12T14:04:31.458Z,6.78
2022-10-12T14:07:37.535Z,7.82
2022-10-12T14:10:40.931Z,7.25
2022-10-12T14:13:45.660Z,7.68
2022-10-12T14:16:49.587Z,7.82
2022-10-12T14:19:53.426Z,9.90
2022-10-12T14:22:57.307Z,6.47
2022-10-12T14:25:59.074Z,6.45
2022-10-12T14:29:40.850Z,6.53
2022-10-12T14:32:44.094Z,7.28
2022-10-12T14:35:48.848Z,7.00
2022-10-12T14:38:53.011Z,6.78
2022-10-12T14:41:54.750Z,7.35
2022-10-12T14:44:56.824Z,6.68
2022-10-12T14:48:00.015Z,6.85
2022-10-12T14:51:01.948Z,6.10
2022-10-12T14:54:04.990Z,6.82
2022-10-12T14:57:16.968Z,6.60
2022-10-12T15:00:21.395Z,6.43
2022-10-12T15:03:23.056Z,6.55
2022-10-12T15:06:24.810Z,6.40
2022-10-12T15:09:26.502Z,6.57
2022-10-12T15:12:30.433Z,6.43
2022-10-12T15:15:47.599Z,6.80
2022-10-12T15:18:49.617Z,7.72
2022-10-12T15:21:51.348Z,7.70
2022-10-12T15:24:54.319Z,6.40
2022-10-12T15:27:56.045Z,6.90
2022-10-12T15:31:16.612Z,6.32
2022-10-12T15:34:19.485Z,6.93
2022-10-12T15:37:21.132Z,7.22
2022-10-12T15:40:23.402Z,7.43
2022-10-12T15:43:25.609Z,7.75
2022-10-12T15:46:27.785Z,7.93
2022-10-12T15:49:29.433Z,6.60
2022-10-12T15:52:31.229Z,8.27
2022-10-12T15:55:33.211Z,7.07
2022-10-12T15:58:34.849Z,8.80
